sensor_id;sensor_type;location;lat;lon;timestamp;pressure;altitude;pressure_sealevel;temperature;humidity
75913;BME280;64592;52.168;21.040;2024-03-06T00:02:35;100616.47;;;5.69;100.00
75913;BME280;64592;52.168;21.040;2024-03-06T00:07:39;100613.78;;;5.69;100.00
75913;BME280;64592;52.168;21.040;2024-03-06T00:12:40;100605.75;;;5.69;100.00
75913;BME280;64592;52.168;21.040;2024-03-06T00:17:42;100612.84;;;5.70;100.00
75913;BME280;64592;52.168;21.040;2024-03-06T00:22:45;100614.53;;;5.71;100.00
75913;BME280;64592;52.168;21.040;2024-03-06T00:27:47;100619.75;;;5.74;100.00
75913;BME280;64592;52.168;21.040;2024-03-06T00:32:49;100614.47;;;5.72;100.00
75913;BME280;64592;52.168;21.040;2024-03-06T00:37:52;100618.88;;;5.73;100.00
75913;BME280;64592;52.168;21.040;2024-03-06T00:42:54;100626.03;;;5.73;100.00
75913;BME280;64592;52.168;21.040;2024-03-06T00:47:56;100617.94;;;5.74;100.00
75913;BME280;64592;52.168;21.040;2024-03-06T00:52:59;100622.34;;;5.75;100.00
75913;BME280;64592;52.168;21.040;2024-03-06T00:58:00;100623.38;;;5.73;100.00
75913;BME280;64592;52.168;21.040;2024-03-06T01:03:02;100625.97;;;5.74;100.00
75913;BME280;64592;52.168;21.040;2024-03-06T01:08:05;100630.44;;;5.74;100.00
75913;BME280;64592;52.168;21.040;2024-03-06T01:13:07;100622.34;;;5.75;100.00
75913;BME280;64592;52.168;21.040;2024-03-06T01:18:11;100630.44;;;5.74;100.00
75913;BME280;64592;52.168;21.040;2024-03-06T01:23:14;100635.66;;;5.77;100.00
75913;BME280;64592;52.168;21.040;2024-03-06T01:28:17;100640.91;;;5.78;100.00
75913;BME280;64592;52.168;21.040;2024-03-06T01:33:18;100636.53;;;5.77;100.00
75913;BME280;64592;52.168;21.040;2024-03-06T01:38:21;100641.78;;;5.79;100.00
75913;BME280;64592;52.168;21.040;2024-03-06T01:43:24;100642.56;;;5.81;100.00
75913;BME280;64592;52.168;21.040;2024-03-06T01:48:28;100657.69;;;5.82;100.00
75913;BME280;64592;52.168;21.040;2024-03-06T01:53:33;100658.47;;;5.84;100.00
75913;BME280;64592;52.168;21.040;2024-03-06T01:58:35;100655.69;;;5.85;100.00
75913;BME280;64592;52.168;21.040;2024-03-06T02:03:39;100657.44;;;5.86;100.00
75913;BME280;64592;52.168;21.040;2024-03-06T02:08:42;100654.72;;;5.88;100.00
75913;BME280;64592;52.168;21.040;2024-03-06T02:13:44;100664.53;;;5.88;100.00
75913;BME280;64592;52.168;21.040;2024-03-06T02:18:52;100663.53;;;5.90;100.00
75913;BME280;64592;52.168;21.040;2024-03-06T02:23:55;100669.81;;;5.89;100.00
75913;BME280;64592;52.168;21.040;2024-03-06T02:28:57;100667.94;;;5.91;100.00
75913;BME280;64592;52.168;21.040;2024-03-06T02:33:58;100658.28;;;5.87;100.00
75913;BME280;64592;52.168;21.040;2024-03-06T02:39:06;100667.94;;;5.91;100.00
75913;BME280;64592;52.168;21.040;2024-03-06T02:44:09;100650.34;;;5.85;100.00
75913;BME280;64592;52.168;21.040;2024-03-06T02:49:10;100663.47;;;5.92;100.00
75913;BME280;64592;52.168;21.040;2024-03-06T02:54:13;100658.19;;;5.90;100.00
75913;BME280;64592;52.168;21.040;2024-03-06T02:59:15;100661.72;;;5.91;100.00
75913;BME280;64592;52.168;21.040;2024-03-06T03:04:17;100669.75;;;5.91;100.00
75913;BME280;64592;52.168;21.040;2024-03-06T03:09:20;100670.75;;;5.88;100.00
75913;BME280;64592;52.168;21.040;2024-03-06T03:14:22;100674.34;;;5.87;100.00
75913;BME280;64592;52.168;21.040;2024-03-06T03:19:24;100679.69;;;5.87;100.00
75913;BME280;64592;52.168;21.040;2024-03-06T03:24:27;100679.69;;;5.87;100.00
75913;BME280;64592;52.168;21.040;2024-03-06T03:29:28;100686.81;;;5.88;100.00
75913;BME280;64592;52.168;21.040;2024-03-06T03:34:31;100690.56;;;5.84;100.00
75913;BME280;64592;52.168;21.040;2024-03-06T03:39:34;100685.28;;;5.82;100.00
75913;BME280;64592;52.168;21.040;2024-03-06T03:44:35;100692.59;;;5.79;100.00
75913;BME280;64592;52.168;21.040;2024-03-06T03:49:37;100693.47;;;5.79;100.00
75913;BME280;64592;52.168;21.040;2024-03-06T03:54:40;100699.69;;;5.80;100.00
75913;BME280;64592;52.168;21.040;2024-03-06T03:59:42;100696.25;;;5.78;100.00
75913;BME280;64592;52.168;21.040;2024-03-06T04:04:43;100704.41;;;5.75;100.00
75913;BME280;64592;52.168;21.040;2024-03-06T04:09:46;100699.28;;;5.70;100.00
75913;BME280;64592;52.168;21.040;2024-03-06T04:14:49;100702.97;;;5.68;100.00
75913;BME280;64592;52.168;21.040;2024-03-06T04:19:51;100700.31;;;5.68;100.00
75913;BME280;64592;52.168;21.040;2024-03-06T04:24:55;100706.66;;;5.65;100.00
75913;BME280;64592;52.168;21.040;2024-03-06T04:29:59;100713.81;;;5.65;100.00
75913;BME280;64592;52.168;21.040;2024-03-06T04:35:00;100711.31;;;5.62;100.00
75913;BME280;64592;52.168;21.040;2024-03-06T04:40:04;100715.84;;;5.60;100.00
75913;BME280;64592;52.168;21.040;2024-03-06T04:45:10;100723.88;;;5.60;100.00
75913;BME280;64592;52.168;21.040;2024-03-06T04:50:12;100721.59;;;5.52;100.00
75913;BME280;64592;52.168;21.040;2024-03-06T04:55:16;100731.34;;;5.53;100.00
75913;BME280;64592;52.168;21.040;2024-03-06T05:00:21;100736.53;;;5.56;100.00
75913;BME280;64592;52.168;21.040;2024-03-06T05:05:23;100743.78;;;5.54;100.00
75913;BME280;64592;52.168;21.040;2024-03-06T05:10:26;100750.94;;;5.54;100.00
75913;BME280;64592;52.168;21.040;2024-03-06T05:15:28;100756.56;;;5.47;100.00
75913;BME280;64592;52.168;21.040;2024-03-06T05:20:29;100755.59;;;5.48;100.00
75913;BME280;64592;52.168;21.040;2024-03-06T05:25:33;100762.63;;;5.51;100.00
75913;BME280;64592;52.168;21.040;2024-03-06T05:30:35;100759.16;;;5.49;100.00
75913;BME280;64592;52.168;21.040;2024-03-06T05:35:37;100760.94;;;5.48;100.00
75913;BME280;64592;52.168;21.040;2024-03-06T05:40:40;100766.59;;;5.42;100.00
75913;BME280;64592;52.168;21.040;2024-03-06T05:45:45;100768.63;;;5.37;100.00
75913;BME280;64592;52.168;21.040;2024-03-06T05:50:47;100768.94;;;5.31;100.00
75913;BME280;64592;52.168;21.040;2024-03-06T05:55:51;100775.22;;;5.30;100.00
75913;BME280;64592;52.168;21.040;2024-03-06T06:00:53;100775.50;;;5.24;100.00
75913;BME280;64592;52.168;21.040;2024-03-06T06:05:55;100779.97;;;5.24;100.00
75913;BME280;64592;52.168;21.040;2024-03-06T06:10:58;100798.63;;;5.25;100.00
75913;BME280;64592;52.168;21.040;2024-03-06T06:16:00;100804.09;;;5.22;100.00
75913;BME280;64592;52.168;21.040;2024-03-06T06:21:03;100808.63;;;5.20;100.00
75913;BME280;64592;52.168;21.040;2024-03-06T06:26:09;100812.25;;;5.19;100.00
75913;BME280;64592;52.168;21.040;2024-03-06T06:31:10;100820.25;;;5.19;100.00
75913;BME280;64592;52.168;21.040;2024-03-06T06:36:12;100817.75;;;5.16;100.00
75913;BME280;64592;52.168;21.040;2024-03-06T06:41:16;100832.69;;;5.20;100.00
75913;BME280;64592;52.168;21.040;2024-03-06T06:46:19;100837.91;;;5.23;100.00
75913;BME280;64592;52.168;21.040;2024-03-06T06:51:21;100832.63;;;5.22;100.00
75913;BME280;64592;52.168;21.040;2024-03-06T06:56:25;100840.56;;;5.23;100.00
75913;BME280;64592;52.168;21.040;2024-03-06T07:01:26;100849.31;;;5.27;100.00
75913;BME280;64592;52.168;21.040;2024-03-06T07:06:28;100851.72;;;5.33;100.00
75913;BME280;64592;52.168;21.040;2024-03-06T07:11:31;100848.97;;;5.34;100.00
75913;BME280;64592;52.168;21.040;2024-03-06T07:16:33;100857.78;;;5.36;100.00
75913;BME280;64592;52.168;21.040;2024-03-06T07:21:35;100858.44;;;5.41;100.00
75913;BME280;64592;52.168;21.040;2024-03-06T07:26:39;100860.16;;;5.42;100.00
75913;BME280;64592;52.168;21.040;2024-03-06T07:31:41;100866.25;;;5.46;100.00
75913;BME280;64592;52.168;21.040;2024-03-06T07:36:42;100866.19;;;5.47;100.00
75913;BME280;64592;52.168;21.040;2024-03-06T07:41:47;100866.19;;;5.47;100.00
75913;BME280;64592;52.168;21.040;2024-03-06T07:46:49;100864.88;;;5.37;100.00
75913;BME280;64592;52.168;21.040;2024-03-06T07:51:51;100862.41;;;5.33;100.00
75913;BME280;64592;52.168;21.040;2024-03-06T07:56:55;100878.09;;;5.40;100.00
75913;BME280;64592;52.168;21.040;2024-03-06T08:01:57;100875.34;;;5.42;100.00
75913;BME280;64592;52.168;21.040;2024-03-06T08:06:58;100874.34;;;5.44;100.00
75913;BME280;64592;52.168;21.040;2024-03-06T08:12:02;100886.34;;;5.55;100.00
75913;BME280;64592;52.168;21.040;2024-03-06T08:17:03;100893.50;;;5.54;100.00
75913;BME280;64592;52.168;21.040;2024-03-06T08:22:05;100896.81;;;5.40;100.00
75913;BME280;64592;52.168;21.040;2024-03-06T08:27:08;100905.09;;;5.34;100.00
75913;BME280;64592;52.168;21.040;2024-03-06T08:32:12;100909.72;;;5.31;100.00
75913;BME280;64592;52.168;21.040;2024-03-06T08:37:13;100903.50;;;5.30;100.00
75913;BME280;64592;52.168;21.040;2024-03-06T08:42:16;100912.47;;;5.29;100.00
75913;BME280;64592;52.168;21.040;2024-03-06T08:47:19;100909.06;;;5.26;100.00
75913;BME280;64592;52.168;21.040;2024-03-06T08:52:21;100917.50;;;5.17;100.00
75913;BME280;64592;52.168;21.040;2024-03-06T08:57:24;100915.09;;;5.11;100.00
75913;BME280;64592;52.168;21.040;2024-03-06T09:02:28;100922.09;;;5.13;100.00
75913;BME280;64592;52.168;21.040;2024-03-06T09:07:30;100924.69;;;5.15;100.00
75913;BME280;64592;52.168;21.040;2024-03-06T09:12:39;100921.16;;;5.14;100.00
75913;BME280;64592;52.168;21.040;2024-03-06T09:17:40;100925.69;;;5.12;100.00
75913;BME280;64592;52.168;21.040;2024-03-06T09:22:43;100924.69;;;5.15;100.00
75913;BME280;64592;52.168;21.040;2024-03-06T09:27:46;100931.78;;;5.16;100.00
75913;BME280;64592;52.168;21.040;2024-03-06T09:32:47;100932.50;;;5.19;100.00
75913;BME280;64592;52.168;21.040;2024-03-06T09:37:49;100935.00;;;5.24;100.00
75913;BME280;64592;52.168;21.040;2024-03-06T09:42:52;100934.94;;;5.25;100.00
75913;BME280;64592;52.168;21.040;2024-03-06T09:47:54;100942.66;;;5.31;100.00
75913;BME280;64592;52.168;21.040;2024-03-06T09:52:56;100944.25;;;5.35;100.00
75913;BME280;64592;52.168;21.040;2024-03-06T09:57:59;100943.72;;;5.27;100.00
75913;BME280;64592;52.168;21.040;2024-03-06T10:03:03;100953.47;;;5.28;100.00
75913;BME280;64592;52.168;21.040;2024-03-06T10:08:08;100965.03;;;5.29;100.00
75913;BME280;64592;52.168;21.040;2024-03-06T10:13:11;100968.66;;;5.28;100.00
75913;BME280;64592;52.168;21.040;2024-03-06T10:18:14;100985.84;;;5.22;100.00
75913;BME280;64592;52.168;21.040;2024-03-06T10:23:18;100975.94;;;5.24;100.00
75913;BME280;64592;52.168;21.040;2024-03-06T10:28:22;100989.44;;;5.21;100.00
75913;BME280;64592;52.168;21.040;2024-03-06T10:33:26;100983.91;;;5.26;100.00
75913;BME280;64592;52.168;21.040;2024-03-06T10:38:34;100986.69;;;5.23;100.00
75913;BME280;64592;52.168;21.040;2024-03-06T10:43:39;100989.69;;;5.15;100.00
75913;BME280;64592;52.168;21.040;2024-03-06T10:48:43;100993.84;;;5.22;100.00
75913;BME280;64592;52.168;21.040;2024-03-06T10:53:45;101001.88;;;5.22;100.00
75913;BME280;64592;52.168;21.040;2024-03-06T10:58:50;101002.13;;;5.16;100.00
75913;BME280;64592;52.168;21.040;2024-03-06T11:03:52;101007.47;;;5.16;100.00
75913;BME280;64592;52.168;21.040;2024-03-06T11:08:54;101004.16;;;5.11;100.00
75913;BME280;64592;52.168;21.040;2024-03-06T11:14:00;101008.63;;;5.11;100.00
75913;BME280;64592;52.168;21.040;2024-03-06T11:19:05;100998.81;;;5.11;100.00
75913;BME280;64592;52.168;21.040;2024-03-06T11:24:23;101004.25;;;5.08;100.00
75913;BME280;64592;52.168;21.040;2024-03-06T11:29:28;101002.19;;;5.15;100.00
75913;BME280;64592;52.168;21.040;2024-03-06T11:34:30;101005.53;;;5.20;100.00
75913;BME280;64592;52.168;21.040;2024-03-06T11:39:33;100994.59;;;5.26;100.00
75913;BME280;64592;52.168;21.040;2024-03-06T11:44:52;101004.41;;;5.25;100.00
75913;BME280;64592;52.168;21.040;2024-03-06T11:49:56;101002.47;;;5.29;100.00
75913;BME280;64592;52.168;21.040;2024-03-06T11:54:59;101001.19;;;5.37;100.00
75913;BME280;64592;52.168;21.040;2024-03-06T12:00:04;101011.50;;;5.46;100.00
75913;BME280;64592;52.168;21.040;2024-03-06T12:05:07;100999.59;;;5.54;100.00
75913;BME280;64592;52.168;21.040;2024-03-06T12:10:10;100998.50;;;5.58;100.00
75913;BME280;64592;52.168;21.040;2024-03-06T12:15:14;100996.78;;;5.57;100.00
75913;BME280;64592;52.168;21.040;2024-03-06T12:20:17;101003.22;;;5.71;100.00
75913;BME280;64592;52.168;21.040;2024-03-06T12:25:19;101009.84;;;5.83;100.00
75913;BME280;64592;52.168;21.040;2024-03-06T12:30:23;100997.69;;;5.96;100.00
75913;BME280;64592;52.168;21.040;2024-03-06T12:35:26;100999.59;;;6.13;100.00
75913;BME280;64592;52.168;21.040;2024-03-06T12:40:28;100998.84;;;6.47;100.00
75913;BME280;64592;52.168;21.040;2024-03-06T12:45:31;101003.50;;;6.79;100.00
75913;BME280;64592;52.168;21.040;2024-03-06T12:50:33;101006.66;;;6.87;100.00
75913;BME280;64592;52.168;21.040;2024-03-06T12:55:34;101002.78;;;6.76;100.00
75913;BME280;64592;52.168;21.040;2024-03-06T13:00:38;101011.03;;;6.71;100.00
75913;BME280;64592;52.168;21.040;2024-03-06T13:05:40;101018.28;;;6.69;100.00
75913;BME280;64592;52.168;21.040;2024-03-06T13:10:41;101026.25;;;6.71;100.00
75913;BME280;64592;52.168;21.040;2024-03-06T13:15:44;101015.78;;;6.66;100.00
75913;BME280;64592;52.168;21.040;2024-03-06T13:20:48;101034.16;;;6.55;100.00
75913;BME280;64592;52.168;21.040;2024-03-06T13:25:50;101026.56;;;6.27;100.00
75913;BME280;64592;52.168;21.040;2024-03-06T13:30:53;101029.31;;;6.07;100.00
75913;BME280;64592;52.168;21.040;2024-03-06T13:35:55;101038.41;;;6.03;100.00
75913;BME280;64592;52.168;21.040;2024-03-06T13:40:57;101036.47;;;6.06;100.00
75913;BME280;64592;52.168;21.040;2024-03-06T13:46:00;101039.91;;;6.08;100.00
75913;BME280;64592;52.168;21.040;2024-03-06T13:51:01;101038.41;;;6.03;100.00
75913;BME280;64592;52.168;21.040;2024-03-06T13:56:03;101024.22;;;6.01;100.00
75913;BME280;64592;52.168;21.040;2024-03-06T14:01:07;101038.22;;;6.07;100.00
75913;BME280;64592;52.168;21.040;2024-03-06T14:06:08;101039.84;;;6.10;100.00
75913;BME280;64592;52.168;21.040;2024-03-06T14:11:10;101044.22;;;6.12;100.00
75913;BME280;64592;52.168;21.040;2024-03-06T14:16:13;101052.25;;;6.12;100.00
75913;BME280;64592;52.168;21.040;2024-03-06T14:21:15;101059.19;;;6.16;100.00
75913;BME280;64592;52.168;21.040;2024-03-06T14:26:16;101056.66;;;6.13;99.77
75913;BME280;64592;52.168;21.040;2024-03-06T14:31:20;101060.28;;;6.12;98.29
75913;BME280;64592;52.168;21.040;2024-03-06T14:36:21;101060.22;;;6.14;99.04
75913;BME280;64592;52.168;21.040;2024-03-06T14:41:25;101063.75;;;6.14;96.88
75913;BME280;64592;52.168;21.040;2024-03-06T14:46:28;101065.56;;;6.14;96.98
75913;BME280;64592;52.168;21.040;2024-03-06T14:51:30;101073.78;;;6.09;95.50
75913;BME280;64592;52.168;21.040;2024-03-06T14:56:32;101075.16;;;5.99;95.99
75913;BME280;64592;52.168;21.040;2024-03-06T15:01:35;101076.22;;;5.95;98.46
75913;BME280;64592;52.168;21.040;2024-03-06T15:06:37;101083.09;;;5.80;100.00
75913;BME280;64592;52.168;21.040;2024-03-06T15:11:39;101089.69;;;5.72;100.00
75913;BME280;64592;52.168;21.040;2024-03-06T15:16:42;101082.88;;;5.65;100.00
75913;BME280;64592;52.168;21.040;2024-03-06T15:21:44;101087.56;;;5.60;100.00
75913;BME280;64592;52.168;21.040;2024-03-06T15:26:46;101093.78;;;5.60;100.00
75913;BME280;64592;52.168;21.040;2024-03-06T15:31:49;101095.84;;;5.54;100.00
75913;BME280;64592;52.168;21.040;2024-03-06T15:36:51;101107.50;;;5.53;100.00
75913;BME280;64592;52.168;21.040;2024-03-06T15:41:52;101109.50;;;5.47;100.00
75913;BME280;64592;52.168;21.040;2024-03-06T15:46:55;101104.16;;;5.47;100.00
75913;BME280;64592;52.168;21.040;2024-03-06T15:51:57;101118.72;;;5.40;96.83
75913;BME280;64592;52.168;21.040;2024-03-06T15:56:59;101124.44;;;5.31;89.99
75913;BME280;64592;52.168;21.040;2024-03-06T16:02:02;101124.28;;;5.34;90.99
75913;BME280;64592;52.168;21.040;2024-03-06T16:07:04;101130.50;;;5.35;92.35
75913;BME280;64592;52.168;21.040;2024-03-06T16:12:07;101133.19;;;5.35;92.69
75913;BME280;64592;52.168;21.040;2024-03-06T16:17:10;101142.00;;;5.37;92.37
75913;BME280;64592;52.168;21.040;2024-03-06T16:22:12;101139.53;;;5.32;93.24
75913;BME280;64592;52.168;21.040;2024-03-06T16:27:14;101134.31;;;5.29;92.83
75913;BME280;64592;52.168;21.040;2024-03-06T16:32:17;101134.81;;;5.17;90.02
75913;BME280;64592;52.168;21.040;2024-03-06T16:37:18;101143.09;;;5.11;90.98
75913;BME280;64592;52.168;21.040;2024-03-06T16:42:20;101148.59;;;5.06;91.37
75913;BME280;64592;52.168;21.040;2024-03-06T16:47:23;101151.59;;;4.99;91.67
75913;BME280;64592;52.168;21.040;2024-03-06T16:52:25;101160.81;;;4.90;92.71
75913;BME280;64592;52.168;21.040;2024-03-06T16:57:26;101169.75;;;4.89;93.61
75913;BME280;64592;52.168;21.040;2024-03-06T17:02:29;101176.69;;;4.95;93.05
75913;BME280;64592;52.168;21.040;2024-03-06T17:07:32;101180.53;;;4.88;93.72
75913;BME280;64592;52.168;21.040;2024-03-06T17:12:34;101172.72;;;4.82;94.73
75913;BME280;64592;52.168;21.040;2024-03-06T17:17:37;101177.97;;;4.85;94.83
75913;BME280;64592;52.168;21.040;2024-03-06T17:22:39;101179.81;;;4.83;95.02
75913;BME280;64592;52.168;21.040;2024-03-06T17:27:41;101186.41;;;4.74;96.05
75913;BME280;64592;52.168;21.040;2024-03-06T17:32:45;101178.69;;;4.66;96.17
75913;BME280;64592;52.168;21.040;2024-03-06T17:37:46;101181.50;;;4.62;96.86
75913;BME280;64592;52.168;21.040;2024-03-06T17:42:48;101195.06;;;4.57;97.85
75913;BME280;64592;52.168;21.040;2024-03-06T17:47:51;101195.19;;;4.53;97.51
75913;BME280;64592;52.168;21.040;2024-03-06T17:52:53;101197.81;;;4.54;98.78
75913;BME280;64592;52.168;21.040;2024-03-06T17:57:55;101200.63;;;4.51;99.37
75913;BME280;64592;52.168;21.040;2024-03-06T18:02:58;101197.94;;;4.51;99.29
75913;BME280;64592;52.168;21.040;2024-03-06T18:08:00;101212.28;;;4.49;98.95
75913;BME280;64592;52.168;21.040;2024-03-06T18:13:02;101215.81;;;4.49;99.10
75913;BME280;64592;52.168;21.040;2024-03-06T18:18:05;101221.03;;;4.52;100.00
75913;BME280;64592;52.168;21.040;2024-03-06T18:23:07;101228.06;;;4.55;100.00
75913;BME280;64592;52.168;21.040;2024-03-06T18:28:11;101223.69;;;4.52;100.00
75913;BME280;64592;52.168;21.040;2024-03-06T18:33:14;101233.72;;;4.46;100.00
75913;BME280;64592;52.168;21.040;2024-03-06T18:38:16;101230.31;;;4.42;100.00
75913;BME280;64592;52.168;21.040;2024-03-06T18:43:18;101224.31;;;4.36;100.00
75913;BME280;64592;52.168;21.040;2024-03-06T18:48:21;101230.63;;;4.33;100.00
75913;BME280;64592;52.168;21.040;2024-03-06T18:53:23;101230.03;;;4.25;100.00
75913;BME280;64592;52.168;21.040;2024-03-06T18:58:25;101232.84;;;4.22;100.00
75913;BME280;64592;52.168;21.040;2024-03-06T19:03:29;101241.03;;;4.16;100.00
75913;BME280;64592;52.168;21.040;2024-03-06T19:08:31;101245.38;;;4.18;100.00
75913;BME280;64592;52.168;21.040;2024-03-06T19:13:32;101244.56;;;4.16;100.00
75913;BME280;64592;52.168;21.040;2024-03-06T19:18:35;101248.09;;;4.17;100.00
75913;BME280;64592;52.168;21.040;2024-03-06T19:23:37;101253.44;;;4.17;100.00
75913;BME280;64592;52.168;21.040;2024-03-06T19:28:39;101260.66;;;4.15;100.00
75913;BME280;64592;52.168;21.040;2024-03-06T19:33:42;101262.44;;;4.14;100.00
75913;BME280;64592;52.168;21.040;2024-03-06T19:38:43;101261.50;;;4.15;100.00
75913;BME280;64592;52.168;21.040;2024-03-06T19:43:45;101256.25;;;4.14;100.00
75913;BME280;64592;52.168;21.040;2024-03-06T19:48:48;101264.25;;;4.14;100.00
75913;BME280;64592;52.168;21.040;2024-03-06T19:53:50;101268.69;;;4.13;100.00
75913;BME280;64592;52.168;21.040;2024-03-06T19:58:53;101264.34;;;4.11;100.00
75913;BME280;64592;52.168;21.040;2024-03-06T20:03:56;101264.53;;;4.05;100.00
75913;BME280;64592;52.168;21.040;2024-03-06T20:08:58;101258.56;;;3.98;100.00
75913;BME280;64592;52.168;21.040;2024-03-06T20:13:59;101263.88;;;3.98;100.00
75913;BME280;64592;52.168;21.040;2024-03-06T20:19:03;101263.75;;;4.01;100.00
75913;BME280;64592;52.168;21.040;2024-03-06T20:24:05;101262.97;;;3.99;100.00
75913;BME280;64592;52.168;21.040;2024-03-06T20:29:09;101258.66;;;3.95;100.00
75913;BME280;64592;52.168;21.040;2024-03-06T20:34:12;101263.94;;;3.97;100.00
75913;BME280;64592;52.168;21.040;2024-03-06T20:39:14;101266.66;;;3.95;100.00
75913;BME280;64592;52.168;21.040;2024-03-06T20:44:16;101273.72;;;3.96;100.00
75913;BME280;64592;52.168;21.040;2024-03-06T20:49:19;101270.19;;;3.96;100.00
75913;BME280;64592;52.168;21.040;2024-03-06T20:54:22;101279.94;;;3.97;100.00
75913;BME280;64592;52.168;21.040;2024-03-06T20:59:24;101278.22;;;3.94;100.00
75913;BME280;64592;52.168;21.040;2024-03-06T21:04:27;101278.31;;;3.93;100.00
75913;BME280;64592;52.168;21.040;2024-03-06T21:09:29;101274.78;;;3.92;100.00
75913;BME280;64592;52.168;21.040;2024-03-06T21:14:31;101280.28;;;3.86;100.00
75913;BME280;64592;52.168;21.040;2024-03-06T21:19:35;101275.78;;;3.88;100.00
75913;BME280;64592;52.168;21.040;2024-03-06T21:24:37;101282.81;;;3.90;100.00
75913;BME280;64592;52.168;21.040;2024-03-06T21:29:39;101289.91;;;3.92;100.00
75913;BME280;64592;52.168;21.040;2024-03-06T21:34:42;101298.94;;;3.86;100.00
75913;BME280;64592;52.168;21.040;2024-03-06T21:39:45;101297.16;;;3.86;100.00
75913;BME280;64592;52.168;21.040;2024-03-06T21:44:47;101296.09;;;3.92;100.00
75913;BME280;64592;52.168;21.040;2024-03-06T21:49:50;101294.41;;;3.89;100.00
75913;BME280;64592;52.168;21.040;2024-03-06T21:54:52;101304.19;;;3.89;100.00
75913;BME280;64592;52.168;21.040;2024-03-06T21:59:54;101297.31;;;3.82;100.00
75913;BME280;64592;52.168;21.040;2024-03-06T22:04:57;101300.94;;;3.79;100.00
75913;BME280;64592;52.168;21.040;2024-03-06T22:10:00;101297.34;;;3.80;100.00
75913;BME280;64592;52.168;21.040;2024-03-06T22:15:02;101305.22;;;3.85;100.00
75913;BME280;64592;52.168;21.040;2024-03-06T22:20:07;101314.34;;;3.78;100.00
75913;BME280;64592;52.168;21.040;2024-03-06T22:25:09;101313.56;;;3.74;100.00
75913;BME280;64592;52.168;21.040;2024-03-06T22:30:12;101312.69;;;3.74;100.00
75913;BME280;64592;52.168;21.040;2024-03-06T22:35:15;101316.31;;;3.71;100.00
75913;BME280;64592;52.168;21.040;2024-03-06T22:40:17;101318.97;;;3.71;100.00
75913;BME280;64592;52.168;21.040;2024-03-06T22:45:19;101315.59;;;3.66;99.51
75913;BME280;64592;52.168;21.040;2024-03-06T22:50:22;101324.44;;;3.68;99.60
75913;BME280;64592;52.168;21.040;2024-03-06T22:55:24;101326.19;;;3.69;98.56
75913;BME280;64592;52.168;21.040;2024-03-06T23:00:25;101330.47;;;3.73;96.66
75913;BME280;64592;52.168;21.040;2024-03-06T23:05:31;101327.13;;;3.67;94.04
75913;BME280;64592;52.168;21.040;2024-03-06T23:10:33;101330.72;;;3.66;92.75
75913;BME280;64592;52.168;21.040;2024-03-06T23:15:35;101329.75;;;3.68;94.06
75913;BME280;64592;52.168;21.040;2024-03-06T23:20:38;101335.09;;;3.68;93.38
75913;BME280;64592;52.168;21.040;2024-03-06T23:25:40;101340.41;;;3.68;93.20
75913;BME280;64592;52.168;21.040;2024-03-06T23:30:41;101331.63;;;3.65;91.33
75913;BME280;64592;52.168;21.040;2024-03-06T23:35:45;101336.22;;;3.61;89.75
75913;BME280;64592;52.168;21.040;2024-03-06T23:40:47;101337.97;;;3.62;88.59
75913;BME280;64592;52.168;21.040;2024-03-06T23:45:48;101337.09;;;3.62;88.27
75913;BME280;64592;52.168;21.040;2024-03-06T23:50:51;101324.72;;;3.59;85.79
75913;BME280;64592;52.168;21.040;2024-03-06T23:55:53;101337.00;;;3.63;84.49
